< < Back
Terminal Aerodrome Forecast


Current Version              Previous Versions:   1  2  3  4  5  6  7  8  9  

Terminal Aerodrome Forecast

573
FTUS44 KMRX 011736
TAFTYS
TAF
KTYS 011736Z 0118/0218 23010KT P6SM SCT050 SCT150
     FM020000 21003KT P6SM SCT250
     FM021400 23010KT P6SM SCT035 BKN100=

Latest METAR

398
SAUS80 KWBC 020200 RRA
MTRTYS
METAR KTYS 020153Z 22005KT 10SM FEW130 SCT250 26/21 A3007 RMK AO2 SLP171
T02560211


USA.gov is the U.S. government's official web portal to all federal, state and local government web resources and services.